createdAt,value
2019-01-16T00:00:45.056Z,101539.96
2019-01-16T00:03:51.273Z,101541.08
2019-01-16T00:06:37.457Z,101543.75
2019-01-16T00:09:31.867Z,101540.56
2019-01-16T00:12:19.556Z,101534.98
2019-01-16T00:15:07.100Z,101538.89
2019-01-16T00:17:54.697Z,101538.45
2019-01-16T00:20:40.752Z,101525.45
2019-01-16T00:23:34.467Z,101518.77
2019-01-16T00:26:20.795Z,101511.08
2019-01-16T00:28:56.899Z,101508.37
2019-01-16T00:31:46.495Z,101505.91
2019-01-16T00:34:36.255Z,101506.14
2019-01-16T00:37:11.736Z,101507.76
2019-01-16T00:39:58.051Z,101498.13
2019-01-16T00:42:44.483Z,101495.77
2019-01-16T00:45:47.168Z,101487.82
2019-01-16T00:48:33.330Z,101502.05
2019-01-16T00:51:38.788Z,101495.48
2019-01-16T00:54:24.349Z,101489.94
2019-01-16T00:57:11.559Z,101498.42
2019-01-16T00:59:57.786Z,101490.48
2019-01-16T01:02:50.061Z,101490.09
2019-01-16T01:05:36.141Z,101486.23
2019-01-16T01:08:34.529Z,101476.70
2019-01-16T01:11:25.075Z,101485.28
2019-01-16T01:14:04.794Z,101487.69
2019-01-16T01:17:10.569Z,101482.81
2019-01-16T01:20:04.107Z,101478.05
2019-01-16T01:23:00.413Z,101480.49
2019-01-16T01:26:06.122Z,101475.84
2019-01-16T01:28:55.155Z,101472.30
2019-01-16T01:31:36.027Z,101471.81
2019-01-16T01:34:32.506Z,101472.83
2019-01-16T01:37:32.077Z,101469.61
2019-01-16T01:40:24.779Z,101485.22
2019-01-16T01:43:10.878Z,101483.30
2019-01-16T01:46:04.343Z,101478.99
2019-01-16T01:48:51.799Z,101477.23
2019-01-16T01:51:51.494Z,101467.99
2019-01-16T01:54:37.843Z,101473.73
2019-01-16T01:57:30.883Z,101472.38
2019-01-16T02:00:09.689Z,101458.56
2019-01-16T02:03:06.004Z,101469.78
2019-01-16T02:05:48.631Z,101471.14
2019-01-16T02:08:34.880Z,101468.27
2019-01-16T02:11:28.325Z,101475.56
2019-01-16T02:14:21.546Z,101466.09
2019-01-16T02:16:58.149Z,101469.25
2019-01-16T02:19:57.900Z,101467.89
2019-01-16T02:22:45.521Z,101465.25
2019-01-16T02:25:48.234Z,101461.12
2019-01-16T02:28:28.872Z,101465.60
2019-01-16T02:31:16.650Z,101456.21
2019-01-16T02:34:10.202Z,101449.25
2019-01-16T02:37:09.172Z,101452.45
2019-01-16T02:40:11.989Z,101442.08
2019-01-16T02:43:08.607Z,101441.48
2019-01-16T02:45:54.859Z,101449.09
2019-01-16T02:48:42.304Z,101441.68
2019-01-16T02:51:30.359Z,101445.53
2019-01-16T02:54:20.375Z,101435.62
2019-01-16T02:57:23.141Z,101432.15
2019-01-16T03:00:13.719Z,101421.86
2019-01-16T03:03:14.084Z,101420.20
2019-01-16T03:06:08.880Z,101408.64
2019-01-16T03:09:02.528Z,101416.17
2019-01-16T03:11:45.515Z,101413.16
2019-01-16T03:14:41.784Z,101399.37
2019-01-16T03:17:35.017Z,101400.98
2019-01-16T03:20:20.678Z,101393.52
2019-01-16T03:23:17.302Z,101388.22
2019-01-16T03:26:04.770Z,101387.62
2019-01-16T03:28:51.181Z,101374.95
2019-01-16T03:31:48.548Z,101373.97
2019-01-16T03:34:36.073Z,101369.78
2019-01-16T03:37:35.956Z,101374.53
2019-01-16T03:40:38.623Z,101368.98
2019-01-16T03:43:34.944Z,101367.69
2019-01-16T03:46:25.473Z,101368.69
2019-01-16T03:49:23.285Z,101360.87
2019-01-16T03:52:00.539Z,101355.28
2019-01-16T03:54:53.787Z,101349.05
2019-01-16T03:57:50.218Z,101346.52
2019-01-16T04:00:46.473Z,101350.80
2019-01-16T04:03:32.883Z,101338.16
2019-01-16T04:06:18.974Z,101337.01
2019-01-16T04:09:06.446Z,101330.14
2019-01-16T04:11:53.998Z,101335.76
2019-01-16T04:14:56.258Z,101327.25
2019-01-16T04:17:55.870Z,101323.91
2019-01-16T04:20:46.332Z,101330.67
2019-01-16T04:23:32.737Z,101321.80
2019-01-16T04:26:17.399Z,101322.69
2019-01-16T04:29:04.956Z,101320.52
2019-01-16T04:31:52.389Z,101315.80
2019-01-16T04:34:46.192Z,101311.45
2019-01-16T04:37:36.914Z,101319.21
2019-01-16T04:40:29.328Z,101312.22
2019-01-16T04:43:14.395Z,101306.45
2019-01-16T04:46:10.914Z,101304.69
2019-01-16T04:49:01.051Z,101303.19
2019-01-16T04:51:51.462Z,101303.89
2019-01-16T04:54:36.578Z,101295.03
2019-01-16T04:57:24.088Z,101294.66
2019-01-16T05:00:02.918Z,101290.58
2019-01-16T05:02:50.441Z,101287.14
2019-01-16T05:05:43.908Z,101287.14
2019-01-16T05:08:40.562Z,101288.49
2019-01-16T05:11:28.532Z,101284.72
2019-01-16T05:14:14.797Z,101280.33
2019-01-16T05:17:11.439Z,101277.20
2019-01-16T05:20:01.798Z,101283.66
2019-01-16T05:22:48.156Z,101280.37
2019-01-16T05:25:35.703Z,101278.35
2019-01-16T05:28:38.289Z,101274.22
2019-01-16T05:31:22.168Z,101275.41
2019-01-16T05:34:15.339Z,101265.99
2019-01-16T05:37:02.807Z,101267.48
2019-01-16T05:39:38.376Z,101252.03
2019-01-16T05:42:17.164Z,101245.58
2019-01-16T05:45:10.749Z,101242.80
2019-01-16T05:47:58.183Z,101249.00
2019-01-16T05:50:48.699Z,101246.92
2019-01-16T05:53:34.784Z,101248.48
2019-01-16T05:56:28.036Z,101241.99
2019-01-16T05:59:15.378Z,101239.19
2019-01-16T06:02:20.978Z,101224.93
2019-01-16T06:05:11.305Z,101221.97
2019-01-16T06:08:05.463Z,101222.73
2019-01-16T06:10:51.509Z,101210.42
2019-01-16T06:13:50.685Z,101206.80
2019-01-16T06:16:38.362Z,101208.98
2019-01-16T06:19:24.534Z,101204.83
2019-01-16T06:22:21.503Z,101208.27
2019-01-16T06:25:07.563Z,101200.55
2019-01-16T06:27:53.515Z,101213.50
2019-01-16T06:30:39.743Z,101205.59
2019-01-16T06:33:19.995Z,101208.92
2019-01-16T06:36:13.330Z,101213.56
2019-01-16T06:39:00.866Z,101206.73
2019-01-16T06:41:41.226Z,101197.05
2019-01-16T06:44:31.488Z,101189.83
2019-01-16T06:47:10.644Z,101191.77
2019-01-16T06:50:08.343Z,101190.19
2019-01-16T06:52:55.866Z,101201.77
2019-01-16T06:55:41.962Z,101192.69
2019-01-16T06:58:30.975Z,101198.78
2019-01-16T07:01:27.683Z,101205.03
2019-01-16T07:04:21.028Z,101208.81
2019-01-16T07:07:15.819Z,101197.13
2019-01-16T07:10:09.075Z,101188.28
2019-01-16T07:13:08.438Z,101193.52
2019-01-16T07:15:44.160Z,101195.84
2019-01-16T07:18:30.569Z,101199.80
2019-01-16T07:21:20.644Z,101189.80
2019-01-16T07:24:11.233Z,101195.05
2019-01-16T07:27:10.647Z,101190.32
2019-01-16T07:29:53.519Z,101192.80
2019-01-16T07:32:43.532Z,101193.94
2019-01-16T07:35:25.268Z,101188.09
2019-01-16T07:38:15.674Z,101176.63
2019-01-16T07:41:15.425Z,101186.45
2019-01-16T07:44:08.508Z,101187.53
2019-01-16T07:47:01.785Z,101185.44
2019-01-16T07:49:47.821Z,101184.01
2019-01-16T07:52:47.269Z,101183.17
2019-01-16T07:55:37.407Z,101186.67
2019-01-16T07:58:15.817Z,101192.94
2019-01-16T08:01:09.366Z,101181.39
2019-01-16T08:03:55.804Z,101184.83
2019-01-16T08:06:42.048Z,101176.94
2019-01-16T08:09:41.489Z,101183.81
2019-01-16T08:12:35.708Z,101183.28
2019-01-16T08:15:31.605Z,101186.99
2019-01-16T08:18:31.319Z,101178.34
2019-01-16T08:21:21.674Z,101184.99
2019-01-16T08:23:57.256Z,101188.48
2019-01-16T08:26:47.439Z,101185.63
2019-01-16T08:29:44.975Z,101185.27
2019-01-16T08:32:38.243Z,101182.97
2019-01-16T08:35:35.216Z,101178.97
2019-01-16T08:38:19.119Z,101187.18
2019-01-16T08:41:04.908Z,101184.48
2019-01-16T08:43:42.806Z,101193.43
2019-01-16T08:46:42.677Z,101185.77
2019-01-16T08:49:30.142Z,101182.39
2019-01-16T08:52:16.668Z,101174.68
2019-01-16T08:55:04.192Z,101177.04
2019-01-16T08:57:50.552Z,101168.93
2019-01-16T09:00:53.188Z,101171.24
2019-01-16T09:03:43.864Z,101173.66
2019-01-16T09:06:31.372Z,101175.19
2019-01-16T09:09:24.691Z,101167.44
2019-01-16T09:12:10.652Z,101158.17
2019-01-16T09:14:55.187Z,101160.33
2019-01-16T09:17:42.376Z,101146.16
2019-01-16T09:20:25.731Z,101144.97
2019-01-16T09:23:31.408Z,101144.39
2019-01-16T09:26:28.158Z,101143.80
2019-01-16T09:29:06.483Z,101146.21
2019-01-16T09:31:44.396Z,101157.21
2019-01-16T09:34:40.748Z,101162.53
2019-01-16T09:37:27.600Z,101152.69
2019-01-16T09:40:21.421Z,101147.12
2019-01-16T09:43:12.268Z,101147.16
2019-01-16T09:46:02.480Z,101145.97
2019-01-16T09:48:48.986Z,101139.89
2019-01-16T09:51:51.778Z,101138.41
2019-01-16T09:54:45.050Z,101122.14
2019-01-16T09:57:32.471Z,101120.42
2019-01-16T10:00:35.076Z,101129.95
2019-01-16T10:03:40.565Z,101113.62
2019-01-16T10:06:30.934Z,101111.09
2019-01-16T10:09:18.592Z,101099.13
2019-01-16T10:12:04.700Z,101100.62
2019-01-16T10:15:01.022Z,101093.49
2019-01-16T10:17:54.406Z,101081.31
2019-01-16T10:20:31.449Z,101085.55
2019-01-16T10:23:22.321Z,101085.47
2019-01-16T10:26:24.562Z,101077.55
2019-01-16T10:29:20.848Z,101080.33
2019-01-16T10:32:08.369Z,101074.84
2019-01-16T10:35:07.685Z,101081.17
2019-01-16T10:38:10.365Z,101071.55
2019-01-16T10:41:03.872Z,101077.25
2019-01-16T10:44:09.690Z,101075.50
2019-01-16T10:46:55.477Z,101065.75
2019-01-16T10:49:37.340Z,101039.78
2019-01-16T10:52:37.079Z,101033.45
2019-01-16T10:55:28.445Z,101025.92
2019-01-16T10:58:20.888Z,101025.23
2019-01-16T11:01:17.487Z,101022.94
2019-01-16T11:04:13.936Z,101020.48
2019-01-16T11:07:01.675Z,101012.95
2019-01-16T11:09:49.696Z,100998.84
2019-01-16T11:12:52.233Z,101004.11
2019-01-16T11:15:51.783Z,100997.25
2019-01-16T11:18:34.612Z,100988.08
2019-01-16T11:21:31.146Z,100982.19
2019-01-16T11:24:17.649Z,100983.30
2019-01-16T11:27:08.207Z,100962.47
2019-01-16T11:30:01.379Z,100963.19
2019-01-16T11:32:53.335Z,100945.45
2019-01-16T11:35:39.705Z,100947.98
2019-01-16T11:38:45.834Z,100945.39
2019-01-16T11:41:34.552Z,100943.92
2019-01-16T11:44:18.557Z,100935.72
2019-01-16T11:46:53.025Z,100928.77
2019-01-16T11:49:43.705Z,100931.59
2019-01-16T11:52:37.498Z,100928.33
2019-01-16T11:55:41.079Z,100931.78
2019-01-16T11:58:28.979Z,100932.77
2019-01-16T12:01:13.997Z,100924.59
2019-01-16T12:03:54.225Z,100929.75
2019-01-16T12:06:41.053Z,100914.17
2019-01-16T12:09:40.669Z,100904.92
2019-01-16T12:12:40.485Z,100910.30
2019-01-16T12:15:31.771Z,100903.20
2019-01-16T12:18:19.928Z,100900.81
2019-01-16T12:21:26.548Z,100892.51
2019-01-16T12:24:14.321Z,100897.63
2019-01-16T12:27:06.619Z,100883.79
2019-01-16T12:29:55.716Z,100888.23
2019-01-16T12:32:44.975Z,100834.80
2019-01-16T12:35:48.998Z,100858.45
2019-01-16T12:38:36.442Z,100857.77
2019-01-16T12:41:25.315Z,100855.52
2019-01-16T12:44:31.252Z,100846.55
2019-01-16T12:47:31.834Z,100850.06
2019-01-16T12:50:25.172Z,100833.44
2019-01-16T12:53:11.564Z,100827.80
2019-01-16T12:56:01.791Z,100822.48
2019-01-16T12:58:52.361Z,100822.33
2019-01-16T13:01:37.691Z,100802.67
2019-01-16T13:04:23.631Z,100812.58
2019-01-16T13:07:11.085Z,100812.94
2019-01-16T13:09:50.587Z,100810.34
2019-01-16T13:12:45.934Z,100818.48
2019-01-16T13:15:36.167Z,100815.20
2019-01-16T13:18:23.596Z,100812.47
2019-01-16T13:21:11.922Z,100802.66
2019-01-16T13:23:59.352Z,100796.73
2019-01-16T13:26:45.865Z,100790.44
2019-01-16T13:29:39.435Z,100784.12
2019-01-16T13:32:25.639Z,100780.85
2019-01-16T13:35:25.395Z,100785.89
2019-01-16T13:38:18.563Z,100774.50
2019-01-16T13:40:58.884Z,100774.77
2019-01-16T13:43:35.073Z,100765.63
2019-01-16T13:46:40.650Z,100765.66
2019-01-16T13:49:30.865Z,100759.44
2019-01-16T13:52:19.032Z,100747.04
2019-01-16T13:55:09.495Z,100739.89
2019-01-16T13:57:56.945Z,100735.25
2019-01-16T14:00:48.709Z,100719.40
2019-01-16T14:03:35.134Z,100715.58
2019-01-16T14:06:34.695Z,100722.42
2019-01-16T14:09:23.232Z,100710.44
2019-01-16T14:12:10.750Z,100708.72
2019-01-16T14:15:01.057Z,100710.81
2019-01-16T14:17:57.237Z,100689.55
2019-01-16T14:20:40.482Z,100682.43
2019-01-16T14:23:27.482Z,100671.30
2019-01-16T14:26:17.682Z,100674.18
2019-01-16T14:29:11.744Z,100675.81
2019-01-16T14:31:55.926Z,100673.52
2019-01-16T14:34:41.961Z,100673.84
2019-01-16T14:37:28.216Z,100668.62
2019-01-16T14:40:15.052Z,100661.60
2019-01-16T14:43:01.312Z,100661.67
2019-01-16T14:45:47.487Z,100658.63
2019-01-16T14:48:24.316Z,100654.59
2019-01-16T14:51:11.905Z,100650.47
2019-01-16T14:54:02.115Z,100647.80
2019-01-16T14:56:48.546Z,100649.97
2019-01-16T14:59:39.130Z,100643.97
2019-01-16T15:02:27.270Z,100646.06
2019-01-16T15:05:07.095Z,100647.53
2019-01-16T15:07:54.653Z,100634.66
2019-01-16T15:10:42.229Z,100637.16
2019-01-16T15:13:29.682Z,100638.31
2019-01-16T15:16:26.177Z,100648.06
2019-01-16T15:19:08.717Z,100649.52
2019-01-16T15:21:56.284Z,100643.72
2019-01-16T15:24:35.401Z,100643.38
2019-01-16T15:27:10.761Z,100635.36
2019-01-16T15:30:01.070Z,100612.38
2019-01-16T15:32:45.167Z,100620.64
2019-01-16T15:35:29.955Z,100613.37
2019-01-16T15:38:23.178Z,100616.70
2019-01-16T15:41:19.300Z,100610.84
2019-01-16T15:44:12.896Z,100602.06
2019-01-16T15:47:09.703Z,100599.48
2019-01-16T15:50:03.101Z,100595.14
2019-01-16T15:53:02.789Z,100592.14
2019-01-16T15:55:53.276Z,100609.50
2019-01-16T15:58:33.391Z,100609.86
2019-01-16T16:01:19.830Z,100605.00
2019-01-16T16:04:20.491Z,100595.67
2019-01-16T16:06:58.215Z,100600.55
2019-01-16T16:09:45.288Z,100589.94
2019-01-16T16:12:45.067Z,100592.73
2019-01-16T16:15:32.324Z,100585.66
2019-01-16T16:18:23.797Z,100594.64
2019-01-16T16:21:20.456Z,100587.56
2019-01-16T16:24:11.459Z,100582.57
2019-01-16T16:27:10.998Z,100584.30
2019-01-16T16:29:56.107Z,100574.02
2019-01-16T16:32:46.256Z,100565.23
2019-01-16T16:35:34.328Z,100552.06
2019-01-16T16:38:30.868Z,100544.80
2019-01-16T16:41:18.421Z,100546.14
2019-01-16T16:44:05.823Z,100541.33
2019-01-16T16:47:02.371Z,100522.47
2019-01-16T16:49:55.911Z,100528.84
2019-01-16T16:52:58.446Z,100523.43
2019-01-16T16:55:52.145Z,100519.67
2019-01-16T16:58:45.646Z,100512.72
2019-01-16T17:01:31.826Z,100509.07
2019-01-16T17:04:24.912Z,100518.84
2019-01-16T17:07:25.813Z,100504.59
2019-01-16T17:10:04.944Z,100506.36
2019-01-16T17:13:04.281Z,100507.67
2019-01-16T17:15:51.817Z,100508.19
2019-01-16T17:18:57.391Z,100509.75
2019-01-16T17:21:48.471Z,100501.56
2019-01-16T17:24:41.140Z,100486.75
2019-01-16T17:27:43.533Z,100489.41
2019-01-16T17:30:44.293Z,100466.27
2019-01-16T17:33:46.778Z,100473.36
2019-01-16T17:36:39.943Z,100466.52
2019-01-16T17:39:36.969Z,100452.62
2019-01-16T17:42:25.008Z,100449.89
2019-01-16T17:45:30.695Z,100451.26
2019-01-16T17:48:07.316Z,100451.97
2019-01-16T17:50:57.563Z,100439.36
2019-01-16T17:53:50.726Z,100444.12
2019-01-16T17:56:38.262Z,100450.55
2019-01-16T17:59:24.266Z,100449.97
2019-01-16T18:02:12.240Z,100454.97
2019-01-16T18:05:18.177Z,100444.30
2019-01-16T18:08:02.574Z,100435.74
2019-01-16T18:10:45.357Z,100419.92
2019-01-16T18:13:44.942Z,100421.31
2019-01-16T18:16:35.647Z,100417.41
2019-01-16T18:19:26.286Z,100411.70
2019-01-16T18:22:25.778Z,100419.29
2019-01-16T18:25:13.262Z,100421.76
2019-01-16T18:27:58.887Z,100408.31
2019-01-16T18:30:46.519Z,100398.95
2019-01-16T18:33:32.719Z,100398.75
2019-01-16T18:36:23.261Z,100398.32
2019-01-16T18:39:19.853Z,100401.56
2019-01-16T18:42:13.604Z,100393.64
2019-01-16T18:45:13.118Z,100394.42
2019-01-16T18:48:06.637Z,100393.21
2019-01-16T18:50:57.334Z,100387.32
2019-01-16T18:53:40.920Z,100392.20
2019-01-16T18:56:26.939Z,100380.38
2019-01-16T18:59:20.825Z,100385.95
2019-01-16T19:02:12.421Z,100367.44
2019-01-16T19:04:55.157Z,100368.45
2019-01-16T19:07:41.283Z,100368.78
2019-01-16T19:10:28.911Z,100366.91
2019-01-16T19:13:12.408Z,100371.55
2019-01-16T19:16:02.801Z,100357.80
2019-01-16T19:18:48.679Z,100361.45
2019-01-16T19:21:29.374Z,100352.95
2019-01-16T19:24:16.905Z,100344.97
2019-01-16T19:27:10.659Z,100358.06
2019-01-16T19:29:57.264Z,100343.02
2019-01-16T19:32:44.880Z,100336.95
2019-01-16T19:35:22.312Z,100347.11
2019-01-16T19:38:00.252Z,100339.29
2019-01-16T19:40:50.374Z,100325.14
2019-01-16T19:43:50.116Z,100325.73
2019-01-16T19:46:36.840Z,100332.59
2019-01-16T19:49:19.431Z,100334.48
2019-01-16T19:51:53.905Z,100328.70
2019-01-16T19:54:40.622Z,100322.20
2019-01-16T19:57:22.931Z,100317.63
2019-01-16T20:00:09.486Z,100312.44
2019-01-16T20:02:59.853Z,100322.09
2019-01-16T20:05:47.473Z,100320.73
2019-01-16T20:08:34.945Z,100310.86
2019-01-16T20:11:21.602Z,100305.14
2019-01-16T20:14:09.187Z,100308.93
2019-01-16T20:17:12.058Z,100303.06
2019-01-16T20:20:08.684Z,100304.13
2019-01-16T20:22:54.818Z,100293.34
2019-01-16T20:25:41.165Z,100286.97
2019-01-16T20:28:37.578Z,100290.50
2019-01-16T20:31:16.404Z,100290.73
2019-01-16T20:34:19.283Z,100286.72
2019-01-16T20:37:06.966Z,100289.06
2019-01-16T20:40:06.739Z,100296.47
2019-01-16T20:42:54.309Z,100285.59
2019-01-16T20:45:31.506Z,100279.97
2019-01-16T20:48:18.112Z,100277.83
2019-01-16T20:51:04.355Z,100275.34
2019-01-16T20:54:01.132Z,100278.34
2019-01-16T20:56:47.166Z,100279.83
2019-01-16T20:59:49.962Z,100287.95
2019-01-16T21:02:44.247Z,100278.58
2019-01-16T21:05:30.414Z,100272.23
2019-01-16T21:08:29.906Z,100265.94
2019-01-16T21:11:24.439Z,100271.45
2019-01-16T21:14:11.879Z,100258.75
2019-01-16T21:16:57.828Z,100261.70
2019-01-16T21:19:44.174Z,100253.37
2019-01-16T21:22:31.629Z,100246.83
2019-01-16T21:25:28.310Z,100255.85
2019-01-16T21:28:13.940Z,100259.24
2019-01-16T21:31:01.674Z,100262.30
2019-01-16T21:34:04.395Z,100266.87
2019-01-16T21:36:45.189Z,100278.59
2019-01-16T21:39:42.307Z,100270.40
2019-01-16T21:42:28.595Z,100255.85
2019-01-16T21:45:28.610Z,100262.70
2019-01-16T21:48:31.423Z,100268.14
2019-01-16T21:51:11.774Z,100263.00
2019-01-16T21:54:20.831Z,100264.97
2019-01-16T21:57:28.481Z,100264.23
2019-01-16T22:00:15.777Z,100264.27
2019-01-16T22:03:12.774Z,100276.24
2019-01-16T22:05:55.733Z,100274.18
2019-01-16T22:08:32.674Z,100285.94
2019-01-16T22:11:29.220Z,100288.13
2019-01-16T22:14:16.015Z,100279.39
2019-01-16T22:17:03.714Z,100290.33
2019-01-16T22:19:51.318Z,100289.60
2019-01-16T22:22:31.367Z,100296.64
2019-01-16T22:25:06.168Z,100302.02
2019-01-16T22:28:11.757Z,100307.98
2019-01-16T22:30:56.738Z,100304.77
2019-01-16T22:33:56.393Z,100299.13
2019-01-16T22:36:42.385Z,100293.03
2019-01-16T22:39:45.050Z,100295.91
2019-01-16T22:42:41.408Z,100316.50
2019-01-16T22:45:32.978Z,100329.49
2019-01-16T22:48:28.513Z,100332.59
2019-01-16T22:51:34.459Z,100346.20
2019-01-16T22:54:24.706Z,100348.59
2019-01-16T22:57:10.853Z,100346.67
2019-01-16T23:00:10.632Z,100347.43
2019-01-16T23:03:13.640Z,100351.39
2019-01-16T23:05:57.343Z,100339.69
2019-01-16T23:08:49.264Z,100341.70
2019-01-16T23:11:42.935Z,100344.31
2019-01-16T23:14:29.830Z,100343.85
2019-01-16T23:17:23.391Z,100335.97
2019-01-16T23:20:10.078Z,100338.06
2019-01-16T23:23:09.924Z,100340.41
2019-01-16T23:25:46.573Z,100349.94
2019-01-16T23:28:41.835Z,100357.66
2019-01-16T23:31:38.237Z,100350.27
2019-01-16T23:34:24.333Z,100335.94
2019-01-16T23:37:20.675Z,100345.71
2019-01-16T23:40:06.873Z,100343.20
2019-01-16T23:42:52.969Z,100343.82
2019-01-16T23:45:40.878Z,100344.56
2019-01-16T23:48:23.606Z,100339.20
2019-01-16T23:51:13.979Z,100332.55
2019-01-16T23:54:04.499Z,100336.77
2019-01-16T23:56:58.315Z,100330.48
2019-01-16T23:59:54.534Z,100347.31
